SWA328 KMSY-KCHS
Flight info
| Callsign | SWA328 |
|---|---|
| Flight time | 1h 30m |
| Altitude | 41000 |
| Route | CEW AMG SAV BAGGY3 |
| Aircraft | B739/M-V/N |
Departure
| Time | 2026-04-21 21:23 |
|---|---|
| Airport | Louis Armstrong New Orleans International Airport (KMSY) |
Arrival
| Time | 2026-04-21 22:53 |
|---|---|
| Airport | Charleston International Airport (KCHS) |
| Time | Latitude | Longitude | Altitude | Speed | Heading |
|---|---|---|---|---|---|
| 2026-04-21 21:06 | 29.98687 | -90.25547 | 15 ft | 0 kts | 319° |
| 2026-04-21 21:14 | 29.98685 | -90.25545 | 15 ft | 2 kts | 319° |
| 2026-04-21 21:14 | 29.98673 | -90.25532 | 15 ft | 2 kts | 318° |
| 2026-04-21 21:14 | 29.98660 | -90.25519 | 17 ft | 2 kts | 317° |
| 2026-04-21 21:15 | 29.98649 | -90.25506 | 16 ft | 2 kts | 322° |
| 2026-04-21 21:15 | 29.98634 | -90.25504 | 16 ft | 2 kts | 27° |
| 2026-04-21 21:15 | 29.98620 | -90.25514 | 16 ft | 2 kts | 37° |
| 2026-04-21 21:15 | 29.98607 | -90.25525 | 14 ft | 2 kts | 36° |
| 2026-04-21 21:16 | 29.98600 | -90.25531 | 14 ft | 0 kts | 37° |
| 2026-04-21 21:16 | 29.98605 | -90.25527 | 14 ft | 2 kts | 37° |
| 2026-04-21 21:16 | 29.98610 | -90.25522 | 14 ft | 0 kts | 37° |
| 2026-04-21 21:17 | 29.98611 | -90.25521 | 14 ft | 0 kts | 37° |
| 2026-04-21 21:18 | 29.98614 | -90.25519 | 17 ft | 3 kts | 37° |
| 2026-04-21 21:18 | 29.98662 | -90.25477 | 15 ft | 17 kts | 37° |
| 2026-04-21 21:18 | 29.98761 | -90.25394 | 14 ft | 18 kts | 36° |
| 2026-04-21 21:19 | 29.98827 | -90.25332 | 12 ft | 5 kts | 52° |
| 2026-04-21 21:19 | 29.98841 | -90.25287 | 11 ft | 7 kts | 85° |
| 2026-04-21 21:19 | 29.98828 | -90.25232 | 12 ft | 8 kts | 104° |
| 2026-04-21 21:19 | 29.98824 | -90.25215 | 9 ft | 0 kts | 104° |
| 2026-04-21 21:20 | 29.98824 | -90.25214 | 9 ft | 1 kts | 104° |
| 2026-04-21 21:20 | 29.98824 | -90.25213 | 9 ft | 0 kts | 105° |
| 2026-04-21 21:21 | 29.98825 | -90.25191 | 9 ft | 5 kts | 68° |
| 2026-04-21 21:21 | 29.98850 | -90.25163 | 9 ft | 5 kts | 23° |
| 2026-04-21 21:21 | 29.98884 | -90.25148 | 10 ft | 5 kts | 17° |
| 2026-04-21 21:22 | 29.98920 | -90.25151 | 11 ft | 6 kts | 331° |
| 2026-04-21 21:22 | 29.98951 | -90.25232 | 12 ft | 38 kts | 286° |
| 2026-04-21 21:22 | 29.99125 | -90.25944 | 13 ft | 143 kts | 284° |
| 2026-04-21 21:22 | 29.99464 | -90.27305 | 388 ft | 193 kts | 283° |
| 2026-04-21 21:23 | 29.99798 | -90.28871 | 1318 ft | 213 kts | 272° |
| 2026-04-21 21:23 | 29.99493 | -90.30587 | 1874 ft | 230 kts | 239° |
| 2026-04-21 21:23 | 29.98369 | -90.31957 | 2235 ft | 248 kts | 208° |
| 2026-04-21 21:23 | 29.96697 | -90.32516 | 2582 ft | 255 kts | 178° |
| 2026-04-21 21:24 | 29.94997 | -90.32053 | 3043 ft | 248 kts | 153° |
| 2026-04-21 21:24 | 29.93483 | -90.31103 | 3600 ft | 247 kts | 149° |
| 2026-04-21 21:24 | 29.91990 | -90.30096 | 4145 ft | 251 kts | 149° |
| 2026-04-21 21:24 | 29.90486 | -90.29046 | 4709 ft | 253 kts | 149° |
| 2026-04-21 21:25 | 29.88973 | -90.27985 | 5265 ft | 255 kts | 148° |
| 2026-04-21 21:25 | 29.87449 | -90.26914 | 5818 ft | 258 kts | 148° |
| 2026-04-21 21:25 | 29.85898 | -90.25834 | 6391 ft | 261 kts | 148° |
| 2026-04-21 21:25 | 29.84365 | -90.24714 | 6946 ft | 267 kts | 139° |
| 2026-04-21 21:26 | 29.83373 | -90.22917 | 7430 ft | 270 kts | 105° |
| 2026-04-21 21:26 | 29.83264 | -90.20763 | 7971 ft | 272 kts | 92° |
| 2026-04-21 21:26 | 29.83233 | -90.18556 | 8849 ft | 278 kts | 99° |
| 2026-04-21 21:26 | 29.82572 | -90.16488 | 9847 ft | 276 kts | 121° |
| 2026-04-21 21:27 | 29.81645 | -90.14526 | 10778 ft | 287 kts | 120° |
| 2026-04-21 21:27 | 29.80697 | -90.12408 | 11155 ft | 314 kts | 119° |
| 2026-04-21 21:27 | 29.79686 | -90.10062 | 11496 ft | 338 kts | 118° |
| 2026-04-21 21:27 | 29.78621 | -90.07545 | 11836 ft | 360 kts | 118° |
| 2026-04-21 21:28 | 29.77506 | -90.04888 | 12311 ft | 375 kts | 118° |
| 2026-04-21 21:28 | 29.76360 | -90.02157 | 12852 ft | 386 kts | 118° |
| 2026-04-21 21:28 | 29.74145 | -89.96339 | 13891 ft | 405 kts | 105° |
| 2026-04-21 21:29 | 29.73986 | -89.93096 | 14387 ft | 412 kts | 84° |
| 2026-04-21 21:29 | 29.74743 | -89.89944 | 14903 ft | 416 kts | 68° |
| 2026-04-21 21:29 | 29.75865 | -89.86854 | 15407 ft | 422 kts | 68° |
| 2026-04-21 21:29 | 29.77011 | -89.83697 | 15873 ft | 430 kts | 67° |
| 2026-04-21 21:30 | 29.78169 | -89.80487 | 16340 ft | 436 kts | 67° |
| 2026-04-21 21:30 | 29.79327 | -89.77244 | 16810 ft | 439 kts | 67° |
| 2026-04-21 21:30 | 29.80484 | -89.73972 | 17285 ft | 442 kts | 67° |
| 2026-04-21 21:30 | 29.81637 | -89.70688 | 17773 ft | 444 kts | 67° |
| 2026-04-21 21:31 | 29.82792 | -89.67382 | 18282 ft | 446 kts | 68° |
| 2026-04-21 21:31 | 29.83953 | -89.64047 | 18747 ft | 451 kts | 67° |
| 2026-04-21 21:31 | 29.85125 | -89.60675 | 19179 ft | 455 kts | 67° |
| 2026-04-21 21:31 | 29.86297 | -89.57300 | 19638 ft | 459 kts | 67° |
| 2026-04-21 21:32 | 29.87485 | -89.53873 | 20070 ft | 463 kts | 67° |
| 2026-04-21 21:32 | 29.88683 | -89.50414 | 20527 ft | 466 kts | 67° |
| 2026-04-21 21:32 | 29.89889 | -89.46931 | 20988 ft | 469 kts | 67° |
| 2026-04-21 21:32 | 29.91098 | -89.43434 | 21453 ft | 471 kts | 67° |
| 2026-04-21 21:33 | 29.92315 | -89.39912 | 21932 ft | 473 kts | 67° |
| 2026-04-21 21:33 | 29.93533 | -89.36384 | 22413 ft | 475 kts | 67° |
| 2026-04-21 21:33 | 29.94760 | -89.32827 | 22909 ft | 477 kts | 67° |
| 2026-04-21 21:33 | 29.95984 | -89.29274 | 23404 ft | 478 kts | 67° |
| 2026-04-21 21:34 | 29.97211 | -89.25708 | 23903 ft | 479 kts | 67° |
| 2026-04-21 21:34 | 29.98027 | -89.23334 | 24183 ft | 480 kts | 66° |
| 2026-04-21 21:34 | 29.99262 | -89.19739 | 24609 ft | 482 kts | 66° |
| 2026-04-21 21:34 | 30.00901 | -89.14965 | 25189 ft | 484 kts | 66° |
| 2026-04-21 21:35 | 30.01738 | -89.12522 | 25474 ft | 485 kts | 66° |
| 2026-04-21 21:35 | 30.02985 | -89.08882 | 25878 ft | 489 kts | 66° |
| 2026-04-21 21:35 | 30.04236 | -89.05227 | 26276 ft | 489 kts | 66° |
| 2026-04-21 21:35 | 30.05484 | -89.01575 | 26698 ft | 490 kts | 66° |
| 2026-04-21 21:36 | 30.06717 | -88.97962 | 27110 ft | 490 kts | 66° |
| 2026-04-21 21:36 | 30.07964 | -88.94303 | 27524 ft | 490 kts | 66° |
| 2026-04-21 21:36 | 30.09215 | -88.90631 | 27956 ft | 490 kts | 66° |
| 2026-04-21 21:36 | 30.10462 | -88.86966 | 28273 ft | 492 kts | 66° |
| 2026-04-21 21:37 | 30.11726 | -88.83255 | 28282 ft | 501 kts | 66° |
| 2026-04-21 21:37 | 30.14312 | -88.75640 | 28285 ft | 516 kts | 67° |
| 2026-04-21 21:38 | 30.16944 | -88.67865 | 28285 ft | 524 kts | 67° |
| 2026-04-21 21:38 | 30.19585 | -88.60040 | 28270 ft | 518 kts | 67° |
| 2026-04-21 21:38 | 30.20868 | -88.56231 | 28618 ft | 514 kts | 67° |
| 2026-04-21 21:39 | 30.22169 | -88.52367 | 29038 ft | 514 kts | 67° |
| 2026-04-21 21:39 | 30.23465 | -88.48516 | 29465 ft | 513 kts | 67° |
| 2026-04-21 21:39 | 30.24760 | -88.44664 | 29909 ft | 512 kts | 67° |
| 2026-04-21 21:39 | 30.26051 | -88.40821 | 30337 ft | 510 kts | 67° |
| 2026-04-21 21:40 | 30.27330 | -88.37008 | 30714 ft | 509 kts | 67° |
| 2026-04-21 21:40 | 30.28595 | -88.33231 | 31091 ft | 509 kts | 66° |
| 2026-04-21 21:40 | 30.29873 | -88.29413 | 31477 ft | 509 kts | 66° |
| 2026-04-21 21:40 | 30.31153 | -88.25586 | 31854 ft | 509 kts | 66° |
| 2026-04-21 21:41 | 30.32429 | -88.21765 | 32254 ft | 510 kts | 66° |
| 2026-04-21 21:41 | 30.33707 | -88.17932 | 32643 ft | 510 kts | 66° |
| 2026-04-21 21:41 | 30.34978 | -88.14119 | 33048 ft | 511 kts | 66° |
| 2026-04-21 21:41 | 30.36264 | -88.10252 | 33452 ft | 511 kts | 65° |
| 2026-04-21 21:42 | 30.37543 | -88.06404 | 33881 ft | 511 kts | 65° |
| 2026-04-21 21:42 | 30.38822 | -88.02552 | 34327 ft | 511 kts | 66° |
| 2026-04-21 21:42 | 30.40088 | -87.98732 | 34705 ft | 507 kts | 66° |
| 2026-04-21 21:42 | 30.41318 | -87.95017 | 35060 ft | 505 kts | 66° |
| 2026-04-21 21:43 | 30.42605 | -87.91123 | 35445 ft | 504 kts | 66° |
| 2026-04-21 21:43 | 30.43858 | -87.87333 | 35822 ft | 503 kts | 66° |
| 2026-04-21 21:43 | 30.45104 | -87.83556 | 36202 ft | 502 kts | 65° |
| 2026-04-21 21:44 | 30.47634 | -87.75893 | 36294 ft | 515 kts | 65° |
| 2026-04-21 21:44 | 30.50174 | -87.68165 | 36278 ft | 514 kts | 65° |
| 2026-04-21 21:45 | 30.52705 | -87.60437 | 36295 ft | 510 kts | 65° |
| 2026-04-21 21:45 | 30.53956 | -87.56613 | 36602 ft | 506 kts | 65° |
| 2026-04-21 21:45 | 30.55206 | -87.52792 | 36917 ft | 507 kts | 65° |
| 2026-04-21 21:45 | 30.56455 | -87.48968 | 37253 ft | 507 kts | 65° |
| 2026-04-21 21:46 | 30.57705 | -87.45142 | 37591 ft | 507 kts | 65° |
| 2026-04-21 21:46 | 30.58936 | -87.41367 | 37920 ft | 507 kts | 64° |
| 2026-04-21 21:46 | 30.60180 | -87.37545 | 38254 ft | 506 kts | 64° |
| 2026-04-21 21:46 | 30.61423 | -87.33725 | 38595 ft | 506 kts | 64° |
| 2026-04-21 21:47 | 30.62662 | -87.29907 | 38952 ft | 505 kts | 64° |
| 2026-04-21 21:47 | 30.63901 | -87.26088 | 39239 ft | 504 kts | 64° |
| 2026-04-21 21:47 | 30.65145 | -87.22252 | 39246 ft | 509 kts | 64° |
| 2026-04-21 21:48 | 30.67641 | -87.14539 | 39262 ft | 510 kts | 65° |
| 2026-04-21 21:48 | 30.70112 | -87.06868 | 39395 ft | 500 kts | 65° |
| 2026-04-21 21:48 | 30.71314 | -87.03134 | 39625 ft | 498 kts | 65° |
| 2026-04-21 21:49 | 30.72529 | -86.99360 | 39847 ft | 498 kts | 65° |
| 2026-04-21 21:49 | 30.73743 | -86.95587 | 40077 ft | 498 kts | 65° |
| 2026-04-21 21:49 | 30.74957 | -86.91810 | 40325 ft | 498 kts | 65° |
| 2026-04-21 21:49 | 30.76168 | -86.88035 | 40559 ft | 498 kts | 65° |
| 2026-04-21 21:50 | 30.77378 | -86.84258 | 40789 ft | 498 kts | 65° |
| 2026-04-21 21:50 | 30.78586 | -86.80481 | 41026 ft | 497 kts | 65° |
| 2026-04-21 21:50 | 30.79792 | -86.76707 | 41264 ft | 497 kts | 65° |
| 2026-04-21 21:51 | 30.82218 | -86.69103 | 41279 ft | 505 kts | 66° |
| 2026-04-21 21:51 | 30.84083 | -86.61130 | 41288 ft | 516 kts | 75° |
| 2026-04-21 21:52 | 30.85520 | -86.52961 | 41288 ft | 519 kts | 76° |
| 2026-04-21 21:52 | 30.86959 | -86.44708 | 41274 ft | 520 kts | 75° |
| 2026-04-21 21:53 | 30.88453 | -86.36475 | 41269 ft | 519 kts | 75° |
| 2026-04-21 21:53 | 30.89963 | -86.28317 | 41273 ft | 519 kts | 75° |
| 2026-04-21 21:54 | 30.91482 | -86.20110 | 41281 ft | 518 kts | 75° |
| 2026-04-21 21:54 | 30.92994 | -86.11893 | 41252 ft | 518 kts | 75° |
| 2026-04-21 21:55 | 30.94492 | -86.03698 | 41234 ft | 517 kts | 75° |
| 2026-04-21 21:55 | 30.95986 | -85.95499 | 41237 ft | 517 kts | 75° |
| 2026-04-21 21:56 | 30.97472 | -85.87306 | 41208 ft | 516 kts | 75° |
| 2026-04-21 21:56 | 30.98955 | -85.79106 | 41220 ft | 516 kts | 75° |
| 2026-04-21 21:57 | 31.00424 | -85.70953 | 41197 ft | 517 kts | 75° |
| 2026-04-21 21:57 | 31.01897 | -85.62742 | 41207 ft | 517 kts | 75° |
| 2026-04-21 21:58 | 31.03367 | -85.54520 | 41222 ft | 518 kts | 75° |
| 2026-04-21 21:58 | 31.04831 | -85.46298 | 41225 ft | 518 kts | 75° |
| 2026-04-21 21:59 | 31.06292 | -85.38060 | 41257 ft | 518 kts | 75° |
| 2026-04-21 21:59 | 31.07738 | -85.29871 | 41235 ft | 518 kts | 75° |
| 2026-04-21 22:00 | 31.09187 | -85.21640 | 41273 ft | 517 kts | 75° |
| 2026-04-21 22:00 | 31.10632 | -85.13396 | 41283 ft | 517 kts | 75° |
| 2026-04-21 22:01 | 31.12060 | -85.05222 | 41269 ft | 517 kts | 75° |
| 2026-04-21 22:01 | 31.13491 | -84.96994 | 41267 ft | 517 kts | 75° |
| 2026-04-21 22:02 | 31.14920 | -84.88745 | 41284 ft | 517 kts | 76° |
| 2026-04-21 22:02 | 31.16334 | -84.80552 | 41265 ft | 517 kts | 76° |
| 2026-04-21 22:03 | 31.17751 | -84.72304 | 41264 ft | 517 kts | 76° |
| 2026-04-21 22:03 | 31.19164 | -84.64053 | 41276 ft | 517 kts | 76° |
| 2026-04-21 22:04 | 31.20568 | -84.55818 | 41263 ft | 516 kts | 76° |
| 2026-04-21 22:04 | 31.21953 | -84.47659 | 41272 ft | 515 kts | 76° |
| 2026-04-21 22:05 | 31.23343 | -84.39443 | 41278 ft | 515 kts | 76° |
| 2026-04-21 22:05 | 31.24727 | -84.31224 | 41259 ft | 515 kts | 76° |
| 2026-04-21 22:06 | 31.26104 | -84.23013 | 41264 ft | 514 kts | 76° |
| 2026-04-21 22:06 | 31.27469 | -84.14844 | 41257 ft | 514 kts | 76° |
| 2026-04-21 22:07 | 31.28833 | -84.06645 | 41268 ft | 513 kts | 76° |
| 2026-04-21 22:07 | 31.30192 | -83.98444 | 41275 ft | 513 kts | 76° |
| 2026-04-21 22:08 | 31.31545 | -83.90245 | 41282 ft | 513 kts | 76° |
| 2026-04-21 22:08 | 31.32896 | -83.82030 | 41282 ft | 514 kts | 76° |
| 2026-04-21 22:09 | 31.34239 | -83.73819 | 41288 ft | 515 kts | 76° |
| 2026-04-21 22:09 | 31.35577 | -83.65614 | 41288 ft | 515 kts | 76° |
| 2026-04-21 22:10 | 31.36918 | -83.57352 | 41295 ft | 517 kts | 76° |
| 2026-04-21 22:10 | 31.38255 | -83.49077 | 41291 ft | 517 kts | 76° |
| 2026-04-21 22:11 | 31.39583 | -83.40824 | 41281 ft | 518 kts | 76° |
| 2026-04-21 22:11 | 31.40910 | -83.32540 | 41280 ft | 519 kts | 76° |
| 2026-04-21 22:12 | 31.42237 | -83.24222 | 41274 ft | 519 kts | 77° |
| 2026-04-21 22:12 | 31.43557 | -83.15908 | 41277 ft | 519 kts | 77° |
| 2026-04-21 22:13 | 31.44867 | -83.07621 | 41270 ft | 516 kts | 77° |
| 2026-04-21 22:13 | 31.46176 | -82.99315 | 41293 ft | 521 kts | 77° |
| 2026-04-21 22:14 | 31.47479 | -82.91005 | 41083 ft | 523 kts | 77° |
| 2026-04-21 22:14 | 31.48128 | -82.86845 | 40714 ft | 515 kts | 77° |
| 2026-04-21 22:14 | 31.48768 | -82.82735 | 40208 ft | 510 kts | 77° |
| 2026-04-21 22:14 | 31.49396 | -82.78682 | 39710 ft | 501 kts | 77° |
| 2026-04-21 22:15 | 31.50013 | -82.74704 | 39237 ft | 492 kts | 76° |
| 2026-04-21 22:15 | 31.50619 | -82.70790 | 38716 ft | 484 kts | 76° |
| 2026-04-21 22:15 | 31.51216 | -82.66927 | 38104 ft | 476 kts | 76° |
| 2026-04-21 22:15 | 31.51803 | -82.63130 | 37551 ft | 472 kts | 76° |
| 2026-04-21 22:16 | 31.52388 | -82.59346 | 37013 ft | 472 kts | 75° |
| 2026-04-21 22:16 | 31.52975 | -82.55544 | 36489 ft | 476 kts | 75° |
| 2026-04-21 22:16 | 31.53687 | -82.51764 | 35966 ft | 475 kts | 68° |
| 2026-04-21 22:16 | 31.54840 | -82.48153 | 35463 ft | 471 kts | 57° |
| 2026-04-21 22:17 | 31.56367 | -82.44823 | 34982 ft | 468 kts | 53° |
| 2026-04-21 22:17 | 31.57970 | -82.41500 | 34499 ft | 467 kts | 52° |
| 2026-04-21 22:17 | 31.59580 | -82.38191 | 34001 ft | 464 kts | 53° |
| 2026-04-21 22:17 | 31.61170 | -82.34903 | 33437 ft | 460 kts | 53° |
| 2026-04-21 22:18 | 31.62727 | -82.31651 | 32887 ft | 456 kts | 53° |
| 2026-04-21 22:18 | 31.64253 | -82.28440 | 32355 ft | 455 kts | 54° |
| 2026-04-21 22:18 | 31.65795 | -82.25184 | 31837 ft | 459 kts | 54° |
| 2026-04-21 22:18 | 31.67351 | -82.21889 | 31329 ft | 464 kts | 55° |
| 2026-04-21 22:19 | 31.68925 | -82.18548 | 30831 ft | 468 kts | 55° |
| 2026-04-21 22:19 | 31.70499 | -82.15194 | 30327 ft | 469 kts | 56° |
| 2026-04-21 22:19 | 31.72075 | -82.11829 | 29753 ft | 470 kts | 56° |
| 2026-04-21 22:19 | 31.73650 | -82.08462 | 29185 ft | 469 kts | 56° |
| 2026-04-21 22:20 | 31.75218 | -82.05106 | 28622 ft | 469 kts | 56° |
| 2026-04-21 22:20 | 31.76788 | -82.01747 | 28078 ft | 468 kts | 56° |
| 2026-04-21 22:20 | 31.78354 | -81.98394 | 27539 ft | 468 kts | 57° |
| 2026-04-21 22:20 | 31.79916 | -81.95049 | 27105 ft | 466 kts | 57° |
| 2026-04-21 22:21 | 31.80954 | -81.92824 | 26883 ft | 469 kts | 57° |
| 2026-04-21 22:21 | 31.82529 | -81.89449 | 26579 ft | 473 kts | 57° |
| 2026-04-21 22:21 | 31.84634 | -81.84932 | 26107 ft | 474 kts | 57° |
| 2026-04-21 22:21 | 31.86213 | -81.81537 | 25767 ft | 474 kts | 58° |
| 2026-04-21 22:22 | 31.87794 | -81.78134 | 25443 ft | 473 kts | 58° |
| 2026-04-21 22:22 | 31.88838 | -81.75883 | 25226 ft | 472 kts | 58° |
| 2026-04-21 22:22 | 31.90409 | -81.72498 | 24897 ft | 470 kts | 58° |
| 2026-04-21 22:22 | 31.91971 | -81.69126 | 24584 ft | 468 kts | 58° |
| 2026-04-21 22:23 | 31.93524 | -81.65772 | 24257 ft | 465 kts | 58° |
| 2026-04-21 22:23 | 31.95058 | -81.62457 | 23943 ft | 457 kts | 58° |
| 2026-04-21 22:23 | 31.96563 | -81.59198 | 23578 ft | 450 kts | 58° |
| 2026-04-21 22:23 | 31.98060 | -81.55958 | 23201 ft | 448 kts | 58° |
| 2026-04-21 22:24 | 31.99531 | -81.52772 | 22834 ft | 447 kts | 58° |
| 2026-04-21 22:24 | 32.01011 | -81.49564 | 22480 ft | 445 kts | 58° |
| 2026-04-21 22:24 | 32.02487 | -81.46363 | 22112 ft | 443 kts | 58° |
| 2026-04-21 22:24 | 32.03959 | -81.43167 | 21753 ft | 441 kts | 58° |
| 2026-04-21 22:25 | 32.05396 | -81.40042 | 21429 ft | 439 kts | 58° |
| 2026-04-21 22:25 | 32.06860 | -81.36855 | 21066 ft | 429 kts | 58° |
| 2026-04-21 22:25 | 32.08256 | -81.33810 | 20713 ft | 415 kts | 58° |
| 2026-04-21 22:25 | 32.09590 | -81.30899 | 20369 ft | 402 kts | 58° |
| 2026-04-21 22:26 | 32.10905 | -81.28032 | 20033 ft | 391 kts | 58° |
| 2026-04-21 22:26 | 32.12183 | -81.25246 | 19695 ft | 382 kts | 58° |
| 2026-04-21 22:26 | 32.13444 | -81.22493 | 19364 ft | 377 kts | 58° |
| 2026-04-21 22:26 | 32.14691 | -81.19788 | 19045 ft | 374 kts | 56° |
| 2026-04-21 22:27 | 32.16107 | -81.17229 | 18718 ft | 369 kts | 50° |
| 2026-04-21 22:27 | 32.17621 | -81.14837 | 18373 ft | 366 kts | 49° |
| 2026-04-21 22:27 | 32.19179 | -81.12461 | 18004 ft | 364 kts | 48° |
| 2026-04-21 22:27 | 32.20730 | -81.10096 | 17642 ft | 363 kts | 49° |
| 2026-04-21 22:28 | 32.22266 | -81.07729 | 17282 ft | 361 kts | 49° |
| 2026-04-21 22:28 | 32.23782 | -81.05368 | 16929 ft | 360 kts | 49° |
| 2026-04-21 22:28 | 32.25286 | -81.03004 | 16577 ft | 359 kts | 50° |
| 2026-04-21 22:28 | 32.26777 | -81.00648 | 16230 ft | 356 kts | 50° |
| 2026-04-21 22:29 | 32.28236 | -80.98331 | 15889 ft | 348 kts | 50° |
| 2026-04-21 22:29 | 32.29649 | -80.96083 | 15559 ft | 340 kts | 50° |
| 2026-04-21 22:29 | 32.31045 | -80.93859 | 15220 ft | 334 kts | 50° |
| 2026-04-21 22:29 | 32.32421 | -80.91668 | 14887 ft | 330 kts | 50° |
| 2026-04-21 22:30 | 32.33782 | -80.89501 | 14565 ft | 326 kts | 50° |
| 2026-04-21 22:30 | 32.35129 | -80.87354 | 14231 ft | 322 kts | 50° |
| 2026-04-21 22:30 | 32.36456 | -80.85237 | 13875 ft | 318 kts | 50° |
| 2026-04-21 22:30 | 32.37766 | -80.83147 | 13516 ft | 315 kts | 51° |
| 2026-04-21 22:31 | 32.39067 | -80.81069 | 13155 ft | 313 kts | 50° |
| 2026-04-21 22:31 | 32.40358 | -80.79007 | 12800 ft | 310 kts | 50° |
| 2026-04-21 22:31 | 32.41623 | -80.76986 | 12449 ft | 308 kts | 51° |
| 2026-04-21 22:31 | 32.42892 | -80.74957 | 12102 ft | 306 kts | 50° |
| 2026-04-21 22:32 | 32.44153 | -80.72939 | 11756 ft | 304 kts | 50° |
| 2026-04-21 22:32 | 32.45406 | -80.70933 | 11418 ft | 302 kts | 50° |
| 2026-04-21 22:32 | 32.46649 | -80.68939 | 11089 ft | 300 kts | 51° |
| 2026-04-21 22:32 | 32.47880 | -80.66964 | 11028 ft | 297 kts | 50° |
| 2026-04-21 22:33 | 32.49116 | -80.64985 | 10993 ft | 298 kts | 51° |
| 2026-04-21 22:33 | 32.50342 | -80.63016 | 10992 ft | 296 kts | 50° |
| 2026-04-21 22:33 | 32.51563 | -80.61055 | 10992 ft | 295 kts | 51° |
| 2026-04-21 22:33 | 32.52788 | -80.59088 | 10966 ft | 299 kts | 51° |
| 2026-04-21 22:34 | 32.54039 | -80.57082 | 10614 ft | 303 kts | 51° |
| 2026-04-21 22:34 | 32.55264 | -80.55110 | 10293 ft | 300 kts | 51° |
| 2026-04-21 22:34 | 32.56494 | -80.53129 | 9921 ft | 295 kts | 51° |
| 2026-04-21 22:34 | 32.57692 | -80.51197 | 9562 ft | 285 kts | 51° |
| 2026-04-21 22:35 | 32.58849 | -80.49332 | 9190 ft | 276 kts | 51° |
| 2026-04-21 22:35 | 32.59974 | -80.47520 | 8820 ft | 270 kts | 51° |
| 2026-04-21 22:35 | 32.61079 | -80.45739 | 8471 ft | 266 kts | 51° |
| 2026-04-21 22:35 | 32.62193 | -80.43993 | 8115 ft | 266 kts | 50° |
| 2026-04-21 22:36 | 32.64504 | -80.40522 | 7454 ft | 269 kts | 53° |
| 2026-04-21 22:36 | 32.65262 | -80.38477 | 7098 ft | 272 kts | 73° |
| 2026-04-21 22:36 | 32.65746 | -80.36339 | 7050 ft | 275 kts | 71° |
| 2026-04-21 22:37 | 32.66266 | -80.34163 | 6999 ft | 272 kts | 72° |
| 2026-04-21 22:37 | 32.66779 | -80.32018 | 6994 ft | 267 kts | 71° |
| 2026-04-21 22:37 | 32.67282 | -80.29888 | 6995 ft | 267 kts | 71° |
| 2026-04-21 22:37 | 32.67773 | -80.27801 | 6984 ft | 255 kts | 72° |
| 2026-04-21 22:38 | 32.68236 | -80.25818 | 6982 ft | 243 kts | 71° |
| 2026-04-21 22:38 | 32.68664 | -80.23920 | 6976 ft | 235 kts | 74° |
| 2026-04-21 22:38 | 32.68743 | -80.21991 | 7003 ft | 237 kts | 93° |
| 2026-04-21 22:38 | 32.68579 | -80.20048 | 7009 ft | 241 kts | 91° |
| 2026-04-21 22:39 | 32.68431 | -80.18056 | 6996 ft | 243 kts | 91° |
| 2026-04-21 22:39 | 32.68610 | -80.16118 | 6983 ft | 233 kts | 59° |
| 2026-04-21 22:39 | 32.69702 | -80.14801 | 7001 ft | 228 kts | 22° |
| 2026-04-21 22:39 | 32.71248 | -80.14634 | 7005 ft | 228 kts | 345° |
| 2026-04-21 22:40 | 32.72648 | -80.15560 | 7001 ft | 234 kts | 328° |
| 2026-04-21 22:40 | 32.74010 | -80.16700 | 6730 ft | 243 kts | 327° |
| 2026-04-21 22:40 | 32.75400 | -80.17849 | 6445 ft | 242 kts | 327° |
| 2026-04-21 22:40 | 32.76782 | -80.18996 | 6162 ft | 240 kts | 327° |
| 2026-04-21 22:41 | 32.78126 | -80.20112 | 5885 ft | 239 kts | 326° |
| 2026-04-21 22:41 | 32.79498 | -80.21224 | 5600 ft | 238 kts | 327° |
| 2026-04-21 22:41 | 32.80870 | -80.22327 | 5320 ft | 237 kts | 327° |
| 2026-04-21 22:41 | 32.82224 | -80.23410 | 5080 ft | 232 kts | 327° |
| 2026-04-21 22:42 | 32.83538 | -80.24465 | 4803 ft | 223 kts | 327° |
| 2026-04-21 22:42 | 32.84800 | -80.25483 | 4520 ft | 217 kts | 327° |
| 2026-04-21 22:42 | 32.86038 | -80.26488 | 4240 ft | 214 kts | 327° |
| 2026-04-21 22:42 | 32.87263 | -80.27493 | 3970 ft | 214 kts | 326° |
| 2026-04-21 22:43 | 32.88487 | -80.28510 | 3682 ft | 215 kts | 327° |
| 2026-04-21 22:43 | 32.89710 | -80.29541 | 3412 ft | 214 kts | 327° |
| 2026-04-21 22:43 | 32.90916 | -80.30559 | 3130 ft | 214 kts | 326° |
| 2026-04-21 22:43 | 32.92132 | -80.31577 | 2857 ft | 212 kts | 328° |
| 2026-04-21 22:44 | 32.93343 | -80.32607 | 2587 ft | 213 kts | 327° |
| 2026-04-21 22:44 | 32.94556 | -80.33649 | 2299 ft | 214 kts | 327° |
| 2026-04-21 22:44 | 32.95781 | -80.34607 | 2009 ft | 212 kts | 342° |
| 2026-04-21 22:44 | 32.97178 | -80.34637 | 1719 ft | 198 kts | 26° |
| 2026-04-21 22:45 | 32.98117 | -80.33578 | 1596 ft | 181 kts | 60° |
| 2026-04-21 22:45 | 32.98831 | -80.32354 | 1490 ft | 180 kts | 57° |
| 2026-04-21 22:45 | 32.99545 | -80.31160 | 1489 ft | 174 kts | 57° |
| 2026-04-21 22:45 | 33.00244 | -80.29994 | 1489 ft | 173 kts | 58° |
| 2026-04-21 22:46 | 33.00951 | -80.28817 | 1519 ft | 176 kts | 56° |
| 2026-04-21 22:46 | 33.01655 | -80.27616 | 1492 ft | 177 kts | 56° |
| 2026-04-21 22:46 | 33.02345 | -80.26422 | 1489 ft | 173 kts | 57° |
| 2026-04-21 22:46 | 33.03038 | -80.25254 | 1490 ft | 171 kts | 56° |
| 2026-04-21 22:47 | 33.03670 | -80.24054 | 1482 ft | 172 kts | 71° |
| 2026-04-21 22:47 | 33.03565 | -80.22667 | 1514 ft | 175 kts | 115° |
| 2026-04-21 22:47 | 33.02981 | -80.21376 | 1497 ft | 176 kts | 117° |
| 2026-04-21 22:47 | 33.02397 | -80.20104 | 1484 ft | 174 kts | 117° |
| 2026-04-21 22:48 | 33.01821 | -80.18848 | 1496 ft | 175 kts | 117° |
| 2026-04-21 22:48 | 33.01238 | -80.17576 | 1495 ft | 174 kts | 117° |
| 2026-04-21 22:48 | 33.00658 | -80.16315 | 1497 ft | 172 kts | 117° |
| 2026-04-21 22:48 | 33.00102 | -80.15101 | 1516 ft | 158 kts | 117° |
| 2026-04-21 22:49 | 32.99596 | -80.13984 | 1486 ft | 153 kts | 117° |
| 2026-04-21 22:49 | 32.99090 | -80.12874 | 1498 ft | 150 kts | 116° |
| 2026-04-21 22:49 | 32.98578 | -80.11782 | 1498 ft | 150 kts | 117° |
| 2026-04-21 22:49 | 32.98085 | -80.10736 | 1500 ft | 140 kts | 117° |
| 2026-04-21 22:50 | 32.97592 | -80.09788 | 1487 ft | 134 kts | 128° |
| 2026-04-21 22:50 | 32.96854 | -80.09106 | 1362 ft | 135 kts | 140° |
| 2026-04-21 22:50 | 32.96087 | -80.08474 | 1187 ft | 132 kts | 142° |
| 2026-04-21 22:50 | 32.95311 | -80.07874 | 1014 ft | 136 kts | 142° |
| 2026-04-21 22:51 | 32.94526 | -80.07275 | 837 ft | 131 kts | 144° |
| 2026-04-21 22:51 | 32.93765 | -80.06689 | 636 ft | 131 kts | 144° |
| 2026-04-21 22:51 | 32.93003 | -80.06093 | 455 ft | 132 kts | 146° |
| 2026-04-21 22:51 | 32.92234 | -80.05501 | 304 ft | 132 kts | 147° |
| 2026-04-21 22:52 | 32.91452 | -80.04926 | 152 ft | 130 kts | 146° |
| 2026-04-21 22:52 | 32.90728 | -80.04373 | 55 ft | 109 kts | 148° |
| 2026-04-21 22:52 | 32.90168 | -80.03946 | 50 ft | 84 kts | 147° |
| 2026-04-21 22:52 | 32.89734 | -80.03622 | 48 ft | 67 kts | 149° |
| 2026-04-21 22:53 | 32.89452 | -80.03583 | 46 ft | 30 kts | 182° |
| 2026-04-21 22:53 | 32.89267 | -80.03589 | 46 ft | 18 kts | 180° |
| 2026-04-21 22:53 | 32.89147 | -80.03589 | 46 ft | 17 kts | 181° |
| 2026-04-21 22:53 | 32.89031 | -80.03597 | 45 ft | 17 kts | 186° |
| 2026-04-21 22:54 | 32.88913 | -80.03618 | 41 ft | 18 kts | 187° |
| 2026-04-21 22:54 | 32.88787 | -80.03638 | 37 ft | 9 kts | 199° |
| 2026-04-21 22:54 | 32.88753 | -80.03701 | 37 ft | 10 kts | 268° |
| 2026-04-21 22:54 | 32.88743 | -80.03784 | 37 ft | 10 kts | 251° |
| 2026-04-21 22:55 | 32.88710 | -80.03855 | 39 ft | 10 kts | 233° |
| 2026-04-21 22:55 | 32.88661 | -80.03915 | 38 ft | 10 kts | 215° |
| 2026-04-21 22:55 | 32.88601 | -80.03880 | 38 ft | 11 kts | 129° |
| 2026-04-21 22:55 | 32.88579 | -80.03843 | 38 ft | 0 kts | 125° |